James Turecamo — WDC7565 — position and weather

sailwx.info

Track history (hours):
 
Tides and Currents Weather Stations Pressure Air Temp Water Temp Dewpoint Dewpoint Depression Visibility Wind Speed Wind Dir Waves Ship Positions

James Turecamo

Owner: Moran Towing Corporation, New Canaan, CT. More information available from US FCC via Universal Licensing System and Coast Guard Vessel Documentation Center.

Last reported at 2014-Dec-21 22:33 UTC. Time now 2014-Dec-21 23:10 UTC.
Position N 40°38' W 074°08'.

Length 27 m; draft 4.5 m.

Type: Tug. MMSI: 367073380.

Date/timePositionNaut miles runAvg speedWind from/ knotsBaromVisibWave heightAir tempDewpointWater temp
2014-Dec-21 22:33N 40°38' W 074°08'0 0.0
2014-Dec-21 21:32N 40°38' W 074°08'0 0.0
2014-Dec-21 20:33N 40°38' W 074°08'0 0.0
2014-Dec-21 19:33N 40°38' W 074°08'0 0.0
2014-Dec-21 18:33N 40°38' W 074°08'0 0.0
2014-Dec-21 17:32N 40°38' W 074°08'0 0.0
2014-Dec-21 13:18N 40°38' W 074°08'0 0.0
2014-Dec-21 05:33N 40°38' W 074°08'0 0.0
2014-Dec-21 04:29N 40°38' W 074°08'0 0.0
2014-Dec-21 03:28N 40°38' W 074°08'0 0.0
2014-Dec-21 02:33N 40°38' W 074°08'0 0.0
2014-Dec-21 01:33N 40°38' W 074°08'0 0.0
2014-Dec-21 00:29N 40°38' W 074°08'0 0.0
2014-Dec-20 23:30N 40°38' W 074°08'0 0.0
2014-Dec-20 21:27N 40°38' W 074°08'0 0.0
2014-Dec-20 20:15N 40°38' W 074°08'1 1.5
2014-Dec-20 19:32N 40°39' W 074°09'1 1.3
2014-Dec-20 18:33N 40°40' W 074°08'2 1.8
2014-Dec-20 17:33N 40°38' W 074°08'0 0.0
2014-Dec-20 16:31N 40°38' W 074°08'0 0.0
2014-Dec-20 15:31N 40°38' W 074°08'0 0.0
2014-Dec-20 14:33N 40°38' W 074°08'0 0.0
2014-Dec-20 13:30N 40°38' W 074°08'0 0.0
2014-Dec-20 12:31N 40°38' W 074°08'0 0.0
2014-Dec-20 10:28N 40°38' W 074°08'0 0.0
2014-Dec-20 09:11N 40°38' W 074°08'0 0.0
2014-Dec-20 07:25N 40°38' W 074°08'0 0.0
2014-Dec-20 06:30N 40°38' W 074°08'0 0.0
2014-Dec-20 05:33N 40°38' W 074°08'0 0.1
2014-Dec-20 04:34N 40°39' W 074°08'3 3.0
2014-Dec-20 03:28N 40°38' W 074°12'3 3.4
2014-Dec-20 02:29N 40°38' W 074°08'0 0.0
2014-Dec-20 01:33N 40°38' W 074°08'0 0.0
2014-Dec-20 00:33N 40°38' W 074°08'2 1.9
2014-Dec-19 23:27N 40°40' W 074°08'1 1.0
2014-Dec-19 22:32N 40°40' W 074°09'1 1.3
2014-Dec-19 21:30N 40°38' W 074°08'0 0.0
2014-Dec-19 20:33N 40°38' W 074°08'0 0.0
2014-Dec-19 19:32N 40°38' W 074°08'3 3.1
2014-Dec-19 18:33N 40°40' W 074°04'0 0.0
2014-Dec-19 17:33N 40°40' W 074°04'0 0.1
2014-Dec-19 16:33N 40°40' W 074°04'1 1.4
2014-Dec-19 15:33N 40°39' W 074°03'3 3.2
2014-Dec-19 14:34N 40°41' W 074°01'6 6.0
2014-Dec-19 13:33N 40°38' W 074°08'1 1.0
2014-Dec-19 12:32N 40°39' W 074°09'2 1.9
2014-Dec-19 11:33N 40°41' W 074°08'1 0.9
2014-Dec-19 10:07N 40°42' W 074°09'2 3.7
2014-Dec-19 09:33N 40°40' W 074°08'1 1.4
2014-Dec-19 08:32N 40°38' W 074°08'0 0.0
2014-Dec-19 07:21N 40°38' W 074°08'0 0.0
2014-Dec-19 06:28N 40°38' W 074°08'0 0.0
2014-Dec-19 05:33N 40°38' W 074°08'0 0.0
2014-Dec-19 04:11N 40°38' W 074°08'0 0.0
2014-Dec-19 03:33N 40°38' W 074°08'0 0.0
2014-Dec-19 02:33N 40°38' W 074°08'0 0.0
2014-Dec-19 01:17N 40°38' W 074°08'1 1.5
2014-Dec-19 00:33N 40°39' W 074°09'3 2.6
2014-Dec-18 23:33N 40°42' W 074°08'0 0.5
2014-Dec-18 22:33N 40°42' W 074°09'2 2.0
2014-Dec-18 21:33N 40°40' W 074°08'1 1.5
2014-Dec-18 20:33N 40°38' W 074°08'0 0.1
2014-Dec-18 19:33N 40°38' W 074°08'0 0.0
2014-Dec-18 18:34N 40°38' W 074°08'3 2.7
2014-Dec-18 17:34N 40°39' W 074°04'2 2.0
2014-Dec-18 16:33N 40°39' W 074°07'1 0.5
2014-Dec-18 15:08N 40°38' W 074°08'1 1.2
2014-Dec-18 14:31N 40°39' W 074°07'0 0.1
2014-Dec-18 13:34N 40°39' W 074°07'3 2.8
2014-Dec-18 12:33N 40°39' W 074°03'4 3.8
2014-Dec-18 11:31N 40°41' W 074°08'0 0.4
2014-Dec-18 10:29N 40°41' W 074°08'0 0.1
2014-Dec-18 09:33N 40°41' W 074°08'2 2.5
2014-Dec-18 08:33N 40°39' W 074°07'0 0.4
2014-Dec-18 07:33N 40°38' W 074°08'0 0.0
2014-Dec-18 06:33N 40°38' W 074°08'0 0.0
2014-Dec-18 05:33N 40°38' W 074°08'0 0.0
2014-Dec-18 04:32N 40°38' W 074°08'1 1.4
2014-Dec-18 03:33N 40°40' W 074°09'1 0.9
2014-Dec-18 02:33N 40°40' W 074°08'2 1.8
2014-Dec-18 01:26N 40°38' W 074°08'0 0.0
2014-Dec-17 23:21N 40°38' W 074°08'0 0.0
2014-Dec-17 21:25N 40°38' W 074°08'0 0.0
2014-Dec-17 19:19N 40°38' W 074°08'0 0.0
2014-Dec-17 18:27N 40°38' W 074°08'1 1.3
2014-Dec-17 17:33N 40°39' W 074°09'1 1.1
2014-Dec-17 16:29N 40°38' W 074°08'0 0.0
2014-Dec-17 15:33N 40°38' W 074°08'0 0.0
2014-Dec-17 14:33N 40°38' W 074°08'0 0.0
2014-Dec-17 13:33N 40°38' W 074°08'0 0.0
2014-Dec-17 12:33N 40°38' W 074°08'1 0.9
2014-Dec-17 11:33N 40°39' W 074°07'0 0.0
2014-Dec-17 10:33N 40°39' W 074°07'1 0.9
2014-Dec-17 09:34N 40°39' W 074°05'2 1.8
2014-Dec-17 08:33N 40°38' W 074°08'0 0.0
2014-Dec-17 07:33N 40°38' W 074°08'0 0.0
2014-Dec-17 06:33N 40°38' W 074°08'0 0.0
2014-Dec-17 05:33N 40°38' W 074°08'0 0.0
2014-Dec-17 04:33N 40°38' W 074°08'0 0.0
2014-Dec-17 03:33N 40°38' W 074°08'0 0.0
2014-Dec-17 02:33N 40°38' W 074°08'0 0.0
2014-Dec-17 01:33N 40°38' W 074°08'0 0.0
2014-Dec-17 00:33N 40°38' W 074°08'0 0.0
2014-Dec-16 23:33N 40°38' W 074°08'0 0.0
2014-Dec-16 22:33N 40°38' W 074°08'0 0.0
2014-Dec-16 21:33N 40°38' W 074°08'0 0.0
2014-Dec-16 20:33N 40°38' W 074°08'0 0.0
2014-Dec-16 19:33N 40°38' W 074°08'2 2.0
2014-Dec-16 18:33N 40°39' W 074°10'6 5.0
2014-Dec-16 17:17N 40°33' W 074°15'1 1.7
2014-Dec-16 16:31N 40°32' W 074°15'0 0.1
2014-Dec-16 15:18N 40°32' W 074°15'0 0.0
2014-Dec-16 14:15N 40°32' W 074°15'6 3.1
2014-Dec-16 12:16N 40°38' W 074°12'4 6.0
2014-Dec-16 11:33N 40°41' W 074°08'1 0.8
2014-Dec-16 10:32N 40°40' W 074°08'2 1.9
2014-Dec-16 09:33N 40°38' W 074°08'0 0.0
2014-Dec-16 08:33N 40°38' W 074°08'0 0.0
2014-Dec-16 07:13N 40°38' W 074°08'1 1.9
2014-Dec-16 06:33N 40°39' W 074°06'1 0.6
2014-Dec-16 05:33N 40°39' W 074°07'3 2.6
2014-Dec-16 04:32N 40°41' W 074°08'3 2.4
2014-Dec-16 03:22N 40°38' W 074°08'4 4.6
2014-Dec-16 02:33N 40°37' W 074°03'3 2.6
2014-Dec-16 01:33N 40°39' W 074°06'2 1.6
2014-Dec-16 00:26N 40°38' W 074°08'0 0.0
2014-Dec-15 23:33N 40°38' W 074°08'0 0.0
2014-Dec-15 22:34N 40°38' W 074°08'0 0.0
2014-Dec-15 21:33N 40°38' W 074°08'0 0.0
2014-Dec-15 20:33N 40°38' W 074°08'0 0.0
2014-Dec-15 19:33N 40°38' W 074°08'8 3.8
2014-Dec-15 17:21N 40°32' W 074°15'6 3.3
2014-Dec-15 15:23N 40°38' W 074°12'9 4.0
2014-Dec-15 13:15N 40°45' W 074°05'2 0.5
2014-Dec-15 09:16N 40°46' W 074°05'2 2.4
2014-Dec-15 08:13N 40°44' W 074°06'2 2.4
2014-Dec-15 07:32N 40°43' W 074°07'0 0.1
2014-Dec-15 06:31N 40°43' W 074°07'4 3.2
2014-Dec-15 05:09N 40°38' W 074°08'0 0.0
2014-Dec-15 04:32N 40°38' W 074°08'0 0.0
2014-Dec-15 03:33N 40°38' W 074°08'0 0.0
2014-Dec-15 02:29N 40°38' W 074°08'0 0.0
2014-Dec-15 01:28N 40°38' W 074°08'0 0.0
2014-Dec-15 00:33N 40°38' W 074°08'0 0.0
2014-Dec-14 23:31N 40°38' W 074°08'0 0.0
2014-Dec-14 22:33N 40°38' W 074°08'0 0.0
2014-Dec-14 21:33N 40°38' W 074°08'0 0.0
2014-Dec-14 20:21N 40°38' W 074°08'4 4.0
2014-Dec-14 19:28N 40°39' W 074°03'4 4.3
2014-Dec-14 18:33N 40°40' W 074°08'2 0.5
2014-Dec-14 15:27N 40°42' W 074°08'3 3.7
2014-Dec-14 14:33N 40°39' W 074°08'0 0.1
2014-Dec-14 13:32N 40°38' W 074°08'0 0.0
2014-Dec-14 12:32N 40°38' W 074°08'0 0.0
2014-Dec-14 11:32N 40°38' W 074°08'0 0.0
2014-Dec-14 10:30N 40°38' W 074°08'0 0.0
2014-Dec-14 09:33N 40°38' W 074°08'0 0.0
2014-Dec-14 08:33N 40°38' W 074°08'0 0.0
2014-Dec-14 07:32N 40°38' W 074°08'0 0.0
2014-Dec-14 06:33N 40°38' W 074°08'3 3.1
2014-Dec-14 05:26N 40°38' W 074°12'4 4.1
2014-Dec-14 04:33N 40°39' W 074°08'0 0.0
2014-Dec-14 01:22N 40°38' W 074°08'0 0.0
2014-Dec-14 00:16N 40°38' W 074°08'0 0.0
2014-Dec-13 22:24N 40°38' W 074°08'0 0.0
2014-Dec-13 21:33N 40°38' W 074°08'0 0.0
2014-Dec-13 20:33N 40°38' W 074°08'0 0.0
2014-Dec-13 19:33N 40°38' W 074°08'0 0.0
2014-Dec-13 18:33N 40°38' W 074°08'0 0.0
2014-Dec-13 17:32N 40°38' W 074°08'0 0.0
2014-Dec-13 16:33N 40°38' W 074°08'0 0.0
2014-Dec-13 15:33N 40°38' W 074°08'0 0.0
2014-Dec-13 14:28N 40°38' W 074°08'0 0.0
2014-Dec-13 13:33N 40°38' W 074°08'0 0.0
2014-Dec-13 12:33N 40°38' W 074°08'3 3.3
2014-Dec-13 11:33N 40°42' W 074°08'0 0.3
2014-Dec-13 10:33N 40°41' W 074°08'0 0.2
2014-Dec-13 08:28N 40°42' W 074°09'4 4.0
2014-Dec-13 07:33N 40°39' W 074°11'8 7.2
2014-Dec-13 06:26N 40°31' W 074°15'0 0.1
2014-Dec-13 05:27N 40°31' W 074°15'1 0.7
2014-Dec-13 04:04N 40°32' W 074°15'6 9.5
2014-Dec-13 03:23N 40°38' W 074°12'3 3.8
2014-Dec-13 02:33N 40°38' W 074°08'0 0.0
2014-Dec-13 01:33N 40°38' W 074°08'0 0.0
2014-Dec-13 00:33N 40°38' W 074°08'0 0.0
2014-Dec-12 23:33N 40°38' W 074°08'0 0.0
2014-Dec-12 22:33N 40°38' W 074°08'3 2.6
2014-Dec-12 21:33N 40°41' W 074°08'2 2.2
2014-Dec-12 20:33N 40°39' W 074°09'1 1.0
2014-Dec-12 19:33N 40°38' W 074°08'0 0.0
2014-Dec-12 18:31N 40°38' W 074°08'0 0.0
2014-Dec-12 17:33N 40°38' W 074°08'0 0.1
2014-Dec-12 16:33N 40°39' W 074°08'4 3.9
2014-Dec-12 15:33N 40°37' W 074°12'1 1.5
2014-Dec-12 14:33N 40°38' W 074°12'3 3.2
2014-Dec-12 13:33N 40°38' W 074°08'1 0.7
2014-Dec-12 12:33N 40°39' W 074°07'1 1.4
2014-Dec-12 11:33N 40°39' W 074°05'2 1.5
2014-Dec-12 10:33N 40°39' W 074°07'7 5.9
2014-Dec-12 09:27N 40°45' W 074°06'1 0.5
2014-Dec-12 07:07N 40°46' W 074°05'4 2.4
2014-Dec-12 05:33N 40°43' W 074°07'2 1.6
2014-Dec-12 04:33N 40°41' W 074°08'3 2.7
2014-Dec-12 03:33N 40°38' W 074°08'0 0.0
2014-Dec-12 02:33N 40°38' W 074°08'0 0.0
2014-Dec-12 01:33N 40°38' W 074°08'0 0.0
2014-Dec-12 00:33N 40°38' W 074°08'2 1.6
2014-Dec-11 23:33N 40°39' W 074°06'1 0.6
2014-Dec-11 22:34N 40°39' W 074°05'  
Track history (hours):
 
Tides and Currents Weather Stations Pressure Air Temp Water Temp Dewpoint Dewpoint Depression Visibility Wind Speed Wind Dir Waves Ship Positions

James Turecamo

Owner: Moran Towing Corporation, New Canaan, CT. More information available from US FCC via Universal Licensing System and Coast Guard Vessel Documentation Center.

Last reported at 2014-Dec-21 22:33 UTC. Time now 2014-Dec-21 23:10 UTC.
Position N 40°38' W 074°08'.

Length 27 m; draft 4.5 m.

Type: Tug. MMSI: 367073380.

Date/timePositionNaut miles runAvg speedWind from/ knotsBaromVisibWave heightAir tempDewpointWater temp
2014-Dec-21 22:33N 40°38' W 074°08'0 0.0
2014-Dec-21 21:32N 40°38' W 074°08'0 0.0
2014-Dec-21 20:33N 40°38' W 074°08'0 0.0
2014-Dec-21 19:33N 40°38' W 074°08'0 0.0
2014-Dec-21 18:33N 40°38' W 074°08'0 0.0
2014-Dec-21 17:32N 40°38' W 074°08'0 0.0
2014-Dec-21 13:18N 40°38' W 074°08'0 0.0
2014-Dec-21 05:33N 40°38' W 074°08'0 0.0
2014-Dec-21 04:29N 40°38' W 074°08'0 0.0
2014-Dec-21 03:28N 40°38' W 074°08'0 0.0
2014-Dec-21 02:33N 40°38' W 074°08'0 0.0
2014-Dec-21 01:33N 40°38' W 074°08'0 0.0
2014-Dec-21 00:29N 40°38' W 074°08'0 0.0
2014-Dec-20 23:30N 40°38' W 074°08'0 0.0
2014-Dec-20 21:27N 40°38' W 074°08'0 0.0
2014-Dec-20 20:15N 40°38' W 074°08'1 1.5
2014-Dec-20 19:32N 40°39' W 074°09'1 1.3
2014-Dec-20 18:33N 40°40' W 074°08'2 1.8
2014-Dec-20 17:33N 40°38' W 074°08'0 0.0
2014-Dec-20 16:31N 40°38' W 074°08'0 0.0
2014-Dec-20 15:31N 40°38' W 074°08'0 0.0
2014-Dec-20 14:33N 40°38' W 074°08'0 0.0
2014-Dec-20 13:30N 40°38' W 074°08'0 0.0
2014-Dec-20 12:31N 40°38' W 074°08'0 0.0
2014-Dec-20 10:28N 40°38' W 074°08'0 0.0
2014-Dec-20 09:11N 40°38' W 074°08'0 0.0
2014-Dec-20 07:25N 40°38' W 074°08'0 0.0
2014-Dec-20 06:30N 40°38' W 074°08'0 0.0
2014-Dec-20 05:33N 40°38' W 074°08'0 0.1
2014-Dec-20 04:34N 40°39' W 074°08'3 3.0
2014-Dec-20 03:28N 40°38' W 074°12'3 3.4
2014-Dec-20 02:29N 40°38' W 074°08'0 0.0
2014-Dec-20 01:33N 40°38' W 074°08'0 0.0
2014-Dec-20 00:33N 40°38' W 074°08'2 1.9
2014-Dec-19 23:27N 40°40' W 074°08'1 1.0
2014-Dec-19 22:32N 40°40' W 074°09'1 1.3
2014-Dec-19 21:30N 40°38' W 074°08'0 0.0
2014-Dec-19 20:33N 40°38' W 074°08'0 0.0
2014-Dec-19 19:32N 40°38' W 074°08'3 3.1
2014-Dec-19 18:33N 40°40' W 074°04'0 0.0
2014-Dec-19 17:33N 40°40' W 074°04'0 0.1
2014-Dec-19 16:33N 40°40' W 074°04'1 1.4
2014-Dec-19 15:33N 40°39' W 074°03'3 3.2
2014-Dec-19 14:34N 40°41' W 074°01'6 6.0
2014-Dec-19 13:33N 40°38' W 074°08'1 1.0
2014-Dec-19 12:32N 40°39' W 074°09'2 1.9
2014-Dec-19 11:33N 40°41' W 074°08'1 0.9
2014-Dec-19 10:07N 40°42' W 074°09'2 3.7
2014-Dec-19 09:33N 40°40' W 074°08'1 1.4
2014-Dec-19 08:32N 40°38' W 074°08'0 0.0
2014-Dec-19 07:21N 40°38' W 074°08'0 0.0
2014-Dec-19 06:28N 40°38' W 074°08'0 0.0
2014-Dec-19 05:33N 40°38' W 074°08'0 0.0
2014-Dec-19 04:11N 40°38' W 074°08'0 0.0
2014-Dec-19 03:33N 40°38' W 074°08'0 0.0
2014-Dec-19 02:33N 40°38' W 074°08'0 0.0
2014-Dec-19 01:17N 40°38' W 074°08'1 1.5
2014-Dec-19 00:33N 40°39' W 074°09'3 2.6
2014-Dec-18 23:33N 40°42' W 074°08'0 0.5
2014-Dec-18 22:33N 40°42' W 074°09'2 2.0
2014-Dec-18 21:33N 40°40' W 074°08'1 1.5
2014-Dec-18 20:33N 40°38' W 074°08'0 0.1
2014-Dec-18 19:33N 40°38' W 074°08'0 0.0
2014-Dec-18 18:34N 40°38' W 074°08'3 2.7
2014-Dec-18 17:34N 40°39' W 074°04'2 2.0
2014-Dec-18 16:33N 40°39' W 074°07'1 0.5
2014-Dec-18 15:08N 40°38' W 074°08'1 1.2
2014-Dec-18 14:31N 40°39' W 074°07'0 0.1
2014-Dec-18 13:34N 40°39' W 074°07'3 2.8
2014-Dec-18 12:33N 40°39' W 074°03'4 3.8
2014-Dec-18 11:31N 40°41' W 074°08'0 0.4
2014-Dec-18 10:29N 40°41' W 074°08'0 0.1
2014-Dec-18 09:33N 40°41' W 074°08'2 2.5
2014-Dec-18 08:33N 40°39' W 074°07'0 0.4
2014-Dec-18 07:33N 40°38' W 074°08'0 0.0
2014-Dec-18 06:33N 40°38' W 074°08'0 0.0
2014-Dec-18 05:33N 40°38' W 074°08'0 0.0
2014-Dec-18 04:32N 40°38' W 074°08'1 1.4
2014-Dec-18 03:33N 40°40' W 074°09'1 0.9
2014-Dec-18 02:33N 40°40' W 074°08'2 1.8
2014-Dec-18 01:26N 40°38' W 074°08'0 0.0
2014-Dec-17 23:21N 40°38' W 074°08'0 0.0
2014-Dec-17 21:25N 40°38' W 074°08'0 0.0
2014-Dec-17 19:19N 40°38' W 074°08'0 0.0
2014-Dec-17 18:27N 40°38' W 074°08'1 1.3
2014-Dec-17 17:33N 40°39' W 074°09'1 1.1
2014-Dec-17 16:29N 40°38' W 074°08'0 0.0
2014-Dec-17 15:33N 40°38' W 074°08'0 0.0
2014-Dec-17 14:33N 40°38' W 074°08'0 0.0
2014-Dec-17 13:33N 40°38' W 074°08'0 0.0
2014-Dec-17 12:33N 40°38' W 074°08'1 0.9
2014-Dec-17 11:33N 40°39' W 074°07'0 0.0
2014-Dec-17 10:33N 40°39' W 074°07'1 0.9
2014-Dec-17 09:34N 40°39' W 074°05'2 1.8
2014-Dec-17 08:33N 40°38' W 074°08'0 0.0
2014-Dec-17 07:33N 40°38' W 074°08'0 0.0
2014-Dec-17 06:33N 40°38' W 074°08'0 0.0
2014-Dec-17 05:33N 40°38' W 074°08'0 0.0
2014-Dec-17 04:33N 40°38' W 074°08'0 0.0
2014-Dec-17 03:33N 40°38' W 074°08'0 0.0
2014-Dec-17 02:33N 40°38' W 074°08'0 0.0
2014-Dec-17 01:33N 40°38' W 074°08'0 0.0
2014-Dec-17 00:33N 40°38' W 074°08'0 0.0
2014-Dec-16 23:33N 40°38' W 074°08'0 0.0
2014-Dec-16 22:33N 40°38' W 074°08'0 0.0
2014-Dec-16 21:33N 40°38' W 074°08'0 0.0
2014-Dec-16 20:33N 40°38' W 074°08'0 0.0
2014-Dec-16 19:33N 40°38' W 074°08'2 2.0
2014-Dec-16 18:33N 40°39' W 074°10'6 5.0
2014-Dec-16 17:17N 40°33' W 074°15'1 1.7
2014-Dec-16 16:31N 40°32' W 074°15'0 0.1
2014-Dec-16 15:18N 40°32' W 074°15'0 0.0
2014-Dec-16 14:15N 40°32' W 074°15'6 3.1
2014-Dec-16 12:16N 40°38' W 074°12'4 6.0
2014-Dec-16 11:33N 40°41' W 074°08'1 0.8
2014-Dec-16 10:32N 40°40' W 074°08'2 1.9
2014-Dec-16 09:33N 40°38' W 074°08'0 0.0
2014-Dec-16 08:33N 40°38' W 074°08'0 0.0
2014-Dec-16 07:13N 40°38' W 074°08'1 1.9
2014-Dec-16 06:33N 40°39' W 074°06'1 0.6
2014-Dec-16 05:33N 40°39' W 074°07'3 2.6
2014-Dec-16 04:32N 40°41' W 074°08'3 2.4
2014-Dec-16 03:22N 40°38' W 074°08'4 4.6
2014-Dec-16 02:33N 40°37' W 074°03'3 2.6
2014-Dec-16 01:33N 40°39' W 074°06'2 1.6
2014-Dec-16 00:26N 40°38' W 074°08'0 0.0
2014-Dec-15 23:33N 40°38' W 074°08'0 0.0
2014-Dec-15 22:34N 40°38' W 074°08'0 0.0
2014-Dec-15 21:33N 40°38' W 074°08'0 0.0
2014-Dec-15 20:33N 40°38' W 074°08'0 0.0
2014-Dec-15 19:33N 40°38' W 074°08'8 3.8
2014-Dec-15 17:21N 40°32' W 074°15'6 3.3
2014-Dec-15 15:23N 40°38' W 074°12'9 4.0
2014-Dec-15 13:15N 40°45' W 074°05'2 0.5
2014-Dec-15 09:16N 40°46' W 074°05'2 2.4
2014-Dec-15 08:13N 40°44' W 074°06'2 2.4
2014-Dec-15 07:32N 40°43' W 074°07'0 0.1
2014-Dec-15 06:31N 40°43' W 074°07'4 3.2
2014-Dec-15 05:09N 40°38' W 074°08'0 0.0
2014-Dec-15 04:32N 40°38' W 074°08'0 0.0
2014-Dec-15 03:33N 40°38' W 074°08'0 0.0
2014-Dec-15 02:29N 40°38' W 074°08'0 0.0
2014-Dec-15 01:28N 40°38' W 074°08'0 0.0
2014-Dec-15 00:33N 40°38' W 074°08'0 0.0
2014-Dec-14 23:31N 40°38' W 074°08'0 0.0
2014-Dec-14 22:33N 40°38' W 074°08'0 0.0
2014-Dec-14 21:33N 40°38' W 074°08'0 0.0
2014-Dec-14 20:21N 40°38' W 074°08'4 4.0
2014-Dec-14 19:28N 40°39' W 074°03'4 4.3
2014-Dec-14 18:33N 40°40' W 074°08'2 0.5
2014-Dec-14 15:27N 40°42' W 074°08'3 3.7
2014-Dec-14 14:33N 40°39' W 074°08'0 0.1
2014-Dec-14 13:32N 40°38' W 074°08'0 0.0
2014-Dec-14 12:32N 40°38' W 074°08'0 0.0
2014-Dec-14 11:32N 40°38' W 074°08'0 0.0
2014-Dec-14 10:30N 40°38' W 074°08'0 0.0
2014-Dec-14 09:33N 40°38' W 074°08'0 0.0
2014-Dec-14 08:33N 40°38' W 074°08'0 0.0
2014-Dec-14 07:32N 40°38' W 074°08'0 0.0
2014-Dec-14 06:33N 40°38' W 074°08'3 3.1
2014-Dec-14 05:26N 40°38' W 074°12'4 4.1
2014-Dec-14 04:33N 40°39' W 074°08'0 0.0
2014-Dec-14 01:22N 40°38' W 074°08'0 0.0
2014-Dec-14 00:16N 40°38' W 074°08'0 0.0
2014-Dec-13 22:24N 40°38' W 074°08'0 0.0
2014-Dec-13 21:33N 40°38' W 074°08'0 0.0
2014-Dec-13 20:33N 40°38' W 074°08'0 0.0
2014-Dec-13 19:33N 40°38' W 074°08'0 0.0
2014-Dec-13 18:33N 40°38' W 074°08'0 0.0
2014-Dec-13 17:32N 40°38' W 074°08'0 0.0
2014-Dec-13 16:33N 40°38' W 074°08'0 0.0
2014-Dec-13 15:33N 40°38' W 074°08'0 0.0
2014-Dec-13 14:28N 40°38' W 074°08'0 0.0
2014-Dec-13 13:33N 40°38' W 074°08'0 0.0
2014-Dec-13 12:33N 40°38' W 074°08'3 3.3
2014-Dec-13 11:33N 40°42' W 074°08'0 0.3
2014-Dec-13 10:33N 40°41' W 074°08'0 0.2
2014-Dec-13 08:28N 40°42' W 074°09'4 4.0
2014-Dec-13 07:33N 40°39' W 074°11'8 7.2
2014-Dec-13 06:26N 40°31' W 074°15'0 0.1
2014-Dec-13 05:27N 40°31' W 074°15'1 0.7
2014-Dec-13 04:04N 40°32' W 074°15'6 9.5
2014-Dec-13 03:23N 40°38' W 074°12'3 3.8
2014-Dec-13 02:33N 40°38' W 074°08'0 0.0
2014-Dec-13 01:33N 40°38' W 074°08'0 0.0
2014-Dec-13 00:33N 40°38' W 074°08'0 0.0
2014-Dec-12 23:33N 40°38' W 074°08'0 0.0
2014-Dec-12 22:33N 40°38' W 074°08'3 2.6
2014-Dec-12 21:33N 40°41' W 074°08'2 2.2
2014-Dec-12 20:33N 40°39' W 074°09'1 1.0
2014-Dec-12 19:33N 40°38' W 074°08'0 0.0
2014-Dec-12 18:31N 40°38' W 074°08'0 0.0
2014-Dec-12 17:33N 40°38' W 074°08'0 0.1
2014-Dec-12 16:33N 40°39' W 074°08'4 3.9
2014-Dec-12 15:33N 40°37' W 074°12'1 1.5
2014-Dec-12 14:33N 40°38' W 074°12'3 3.2
2014-Dec-12 13:33N 40°38' W 074°08'1 0.7
2014-Dec-12 12:33N 40°39' W 074°07'1 1.4
2014-Dec-12 11:33N 40°39' W 074°05'2 1.5
2014-Dec-12 10:33N 40°39' W 074°07'7 5.9
2014-Dec-12 09:27N 40°45' W 074°06'1 0.5
2014-Dec-12 07:07N 40°46' W 074°05'4 2.4
2014-Dec-12 05:33N 40°43' W 074°07'2 1.6
2014-Dec-12 04:33N 40°41' W 074°08'3 2.7
2014-Dec-12 03:33N 40°38' W 074°08'0 0.0
2014-Dec-12 02:33N 40°38' W 074°08'0 0.0
2014-Dec-12 01:33N 40°38' W 074°08'0 0.0
2014-Dec-12 00:33N 40°38' W 074°08'2 1.6
2014-Dec-11 23:33N 40°39' W 074°06'1 0.6
2014-Dec-11 22:34N 40°39' W 074°05'  

Dump ship's entire track history